createdAt,value
2022-08-21T00:00:27.960Z,15.62
2022-08-21T00:03:02.235Z,15.57
2022-08-21T00:05:31.175Z,15.52
2022-08-21T00:07:59.220Z,15.20
2022-08-21T00:10:28.215Z,15.23
2022-08-21T00:12:56.772Z,15.36
2022-08-21T00:15:28.184Z,15.34
2022-08-21T00:17:56.486Z,15.35
2022-08-21T00:20:26.159Z,15.37
2022-08-21T00:22:54.295Z,15.35
2022-08-21T00:25:24.977Z,15.40
2022-08-21T00:27:54.480Z,15.34
2022-08-21T00:30:24.627Z,14.58
2022-08-21T00:32:53.761Z,14.95
2022-08-21T00:35:24.780Z,15.07
2022-08-21T00:37:54.412Z,15.25
2022-08-21T00:40:32.594Z,15.13
2022-08-21T00:43:00.711Z,15.12
2022-08-21T00:45:29.606Z,14.89
2022-08-21T00:47:58.199Z,15.09
2022-08-21T00:50:31.457Z,15.01
2022-08-21T00:53:03.771Z,14.76
2022-08-21T00:55:33.818Z,15.02
2022-08-21T00:58:06.888Z,15.08
2022-08-21T01:00:40.883Z,15.02
2022-08-21T01:03:13.469Z,14.80
2022-08-21T01:05:42.958Z,14.67
2022-08-21T01:08:12.752Z,14.88
2022-08-21T01:10:42.145Z,14.92
2022-08-21T01:13:12.313Z,14.82
2022-08-21T01:15:44.457Z,14.97
2022-08-21T01:18:15.720Z,14.81
2022-08-21T01:20:46.469Z,15.02
2022-08-21T01:23:16.413Z,15.02
2022-08-21T01:25:44.535Z,15.00
2022-08-21T01:28:16.114Z,13.29
2022-08-21T01:30:47.193Z,14.92
2022-08-21T01:33:15.334Z,14.86
2022-08-21T01:35:43.411Z,14.55
2022-08-21T01:38:11.387Z,14.23
2022-08-21T01:40:40.837Z,14.71
2022-08-21T01:43:08.849Z,14.77
2022-08-21T01:45:36.936Z,14.59
2022-08-21T01:48:05.667Z,14.72
2022-08-21T01:50:33.927Z,14.57
2022-08-21T01:53:01.940Z,14.47
2022-08-21T01:55:29.999Z,14.08
2022-08-21T01:58:01.308Z,14.48
2022-08-21T02:00:29.350Z,14.36
2022-08-21T02:02:57.827Z,14.55
2022-08-21T02:05:26.298Z,14.50
2022-08-21T02:07:56.437Z,14.16
2022-08-21T02:10:28.520Z,13.67
2022-08-21T02:12:57.812Z,14.30
2022-08-21T02:15:27.312Z,14.05
2022-08-21T02:17:58.092Z,14.00
2022-08-21T02:20:29.551Z,14.28
2022-08-21T02:22:57.953Z,14.23
2022-08-21T02:25:28.101Z,14.29
2022-08-21T02:27:57.359Z,14.13
2022-08-21T02:30:28.894Z,14.27
2022-08-21T02:32:58.041Z,13.92
2022-08-21T02:35:26.264Z,14.21
2022-08-21T02:37:56.293Z,14.12
2022-08-21T02:40:27.085Z,14.22
2022-08-21T02:42:55.586Z,14.38
2022-08-21T02:45:23.643Z,13.91
2022-08-21T02:47:55.006Z,14.34
2022-08-21T02:50:28.246Z,13.70
2022-08-21T02:52:57.754Z,14.28
2022-08-21T02:55:28.688Z,14.28
2022-08-21T02:57:58.239Z,14.28
2022-08-21T03:00:30.375Z,14.25
2022-08-21T03:03:00.231Z,14.18
2022-08-21T03:05:32.006Z,14.11
2022-08-21T03:08:01.618Z,14.01
2022-08-21T03:10:31.866Z,14.05
2022-08-21T03:13:01.149Z,14.20
2022-08-21T03:15:29.423Z,14.27
2022-08-21T03:17:59.179Z,13.53
2022-08-21T03:20:29.595Z,14.20
2022-08-21T03:22:57.732Z,14.22
2022-08-21T03:25:38.882Z,14.11
2022-08-21T03:28:13.178Z,14.16
2022-08-21T03:30:42.575Z,14.18
2022-08-21T03:33:14.944Z,14.35
2022-08-21T03:35:44.608Z,14.33
2022-08-21T03:38:14.149Z,14.40
2022-08-21T03:40:42.333Z,14.21
2022-08-21T03:43:11.308Z,14.10
2022-08-21T03:45:40.338Z,14.07
2022-08-21T03:48:10.119Z,13.76
2022-08-21T03:50:42.620Z,13.88
2022-08-21T03:53:17.639Z,13.84
2022-08-21T03:55:46.474Z,13.84
2022-08-21T03:58:16.736Z,13.86
2022-08-21T04:00:46.160Z,13.90
2022-08-21T04:03:14.463Z,13.83
2022-08-21T04:05:46.373Z,13.95
2022-08-21T04:08:16.071Z,14.00
2022-08-21T04:10:45.835Z,13.99
2022-08-21T04:13:15.578Z,13.71
2022-08-21T04:15:43.808Z,14.12
2022-08-21T04:18:12.036Z,14.15
2022-08-21T04:20:40.899Z,14.21
2022-08-21T04:23:10.266Z,14.27
2022-08-21T04:25:38.375Z,14.21
2022-08-21T04:28:06.623Z,14.22
2022-08-21T04:30:35.121Z,14.20
2022-08-21T04:33:03.995Z,13.71
2022-08-21T04:35:32.402Z,14.23
2022-08-21T04:38:00.618Z,13.99
2022-08-21T04:40:30.979Z,14.11
2022-08-21T04:43:05.057Z,13.90
2022-08-21T04:45:35.690Z,14.20
2022-08-21T04:48:08.689Z,14.15
2022-08-21T04:50:43.891Z,14.26
2022-08-21T04:53:16.571Z,14.31
2022-08-21T04:55:46.897Z,14.22
2022-08-21T04:58:17.155Z,14.16
2022-08-21T05:00:46.290Z,12.68
2022-08-21T05:03:15.408Z,14.34
2022-08-21T05:05:44.578Z,14.55
2022-08-21T05:08:16.668Z,14.15
2022-08-21T05:10:46.660Z,14.61
2022-08-21T05:13:15.374Z,14.56
2022-08-21T05:15:43.953Z,14.80
2022-08-21T05:18:12.313Z,14.51
2022-08-21T05:20:40.659Z,14.87
2022-08-21T05:23:10.366Z,14.64
2022-08-21T05:25:38.720Z,14.74
2022-08-21T05:28:08.473Z,14.91
2022-08-21T05:30:37.665Z,15.05
2022-08-21T05:33:08.203Z,15.01
2022-08-21T05:35:37.085Z,14.77
2022-08-21T05:38:06.050Z,15.23
2022-08-21T05:40:45.213Z,15.34
2022-08-21T05:43:15.160Z,14.96
2022-08-21T05:45:44.352Z,15.60
2022-08-21T05:48:15.180Z,15.67
2022-08-21T05:50:44.047Z,15.73
2022-08-21T05:53:12.331Z,15.87
2022-08-21T05:55:45.599Z,15.55
2022-08-21T05:58:17.509Z,16.20
2022-08-21T06:00:48.489Z,16.02
2022-08-21T06:03:19.275Z,15.97
2022-08-21T06:05:47.826Z,15.95
2022-08-21T06:08:17.182Z,15.90
2022-08-21T06:10:45.707Z,15.78
2022-08-21T06:13:16.168Z,16.19
2022-08-21T06:15:44.205Z,16.16
2022-08-21T06:18:12.413Z,16.35
2022-08-21T06:20:40.991Z,16.29
2022-08-21T06:23:09.551Z,16.49
2022-08-21T06:25:37.831Z,16.60
2022-08-21T06:28:08.155Z,16.43
2022-08-21T06:30:39.491Z,16.53
2022-08-21T06:33:08.133Z,16.65
2022-08-21T06:35:37.189Z,16.91
2022-08-21T06:38:09.371Z,16.94
2022-08-21T06:40:37.501Z,17.23
2022-08-21T06:43:15.819Z,17.50
2022-08-21T06:45:46.715Z,17.29
2022-08-21T06:48:18.551Z,17.65
2022-08-21T06:50:47.772Z,16.70
2022-08-21T06:53:19.150Z,17.43
2022-08-21T06:55:47.701Z,17.88
2022-08-21T06:58:16.290Z,18.14
2022-08-21T07:00:49.799Z,18.24
2022-08-21T07:03:26.633Z,18.42
2022-08-21T07:05:55.381Z,18.42
2022-08-21T07:08:23.434Z,18.54
2022-08-21T07:10:51.742Z,18.60
2022-08-21T07:13:20.415Z,18.77
2022-08-21T07:15:50.182Z,18.95
2022-08-21T07:18:18.563Z,19.06
2022-08-21T07:20:47.614Z,19.09
2022-08-21T07:23:24.724Z,19.15
2022-08-21T07:25:52.940Z,18.58
2022-08-21T07:28:21.244Z,19.39
2022-08-21T07:30:54.276Z,19.47
2022-08-21T07:33:22.449Z,19.46
2022-08-21T07:35:50.371Z,19.78
2022-08-21T07:38:19.352Z,19.75
2022-08-21T07:40:47.800Z,20.03
2022-08-21T07:43:17.781Z,20.15
2022-08-21T07:45:46.092Z,20.08
2022-08-21T07:48:15.424Z,20.22
2022-08-21T07:50:44.189Z,20.44
2022-08-21T07:53:12.266Z,20.27
2022-08-21T07:55:40.728Z,20.34
2022-08-21T07:58:08.952Z,20.64
2022-08-21T08:00:37.129Z,20.52
2022-08-21T08:03:05.500Z,21.10
2022-08-21T08:05:38.129Z,21.08
2022-08-21T08:08:06.340Z,21.12
2022-08-21T08:10:34.370Z,21.48
2022-08-21T08:13:02.486Z,21.48
2022-08-21T08:15:32.440Z,21.58
2022-08-21T08:18:03.734Z,21.67
2022-08-21T08:20:31.697Z,21.66
2022-08-21T08:23:01.473Z,21.89
2022-08-21T08:25:32.799Z,22.07
2022-08-21T08:28:16.740Z,21.74
2022-08-21T08:30:46.313Z,21.92
2022-08-21T08:33:14.897Z,22.09
2022-08-21T08:35:43.344Z,22.04
2022-08-21T08:38:12.694Z,21.86
2022-08-21T08:40:46.969Z,21.87
2022-08-21T08:43:15.523Z,21.77
2022-08-21T08:45:51.035Z,22.27
2022-08-21T08:48:34.237Z,22.30
2022-08-21T08:51:04.949Z,22.04
2022-08-21T08:53:38.674Z,22.14
2022-08-21T08:56:07.973Z,22.26
2022-08-21T08:58:39.841Z,22.09
2022-08-21T09:01:12.366Z,21.93
2022-08-21T09:03:41.995Z,22.16
2022-08-21T09:06:16.051Z,22.38
2022-08-21T09:08:56.506Z,22.39
2022-08-21T09:11:30.025Z,22.42
2022-08-21T09:14:11.116Z,22.65
2022-08-21T09:16:48.493Z,22.58
2022-08-21T09:19:31.311Z,22.45
2022-08-21T09:22:06.669Z,22.46
2022-08-21T09:24:51.952Z,22.54
2022-08-21T09:27:23.032Z,22.94
2022-08-21T09:29:56.176Z,22.93
2022-08-21T09:32:37.202Z,23.07
2022-08-21T09:35:09.537Z,23.15
2022-08-21T09:37:49.959Z,23.40
2022-08-21T09:40:27.616Z,23.49
2022-08-21T09:42:58.004Z,23.64
2022-08-21T09:45:26.747Z,23.69
2022-08-21T09:47:55.021Z,23.60
2022-08-21T09:50:28.954Z,23.57
2022-08-21T09:53:01.091Z,22.10
2022-08-21T09:55:54.019Z,22.98
2022-08-21T09:58:22.730Z,23.45
2022-08-21T10:01:00.237Z,23.38
2022-08-21T10:03:29.362Z,23.54
2022-08-21T10:06:00.686Z,23.72
2022-08-21T10:08:30.568Z,23.42
2022-08-21T10:11:06.630Z,23.31
2022-08-21T10:13:49.169Z,23.76
2022-08-21T10:16:33.817Z,23.89
2022-08-21T10:19:21.905Z,23.96
2022-08-21T10:22:02.473Z,24.14
2022-08-21T10:24:35.465Z,24.33
2022-08-21T10:27:18.307Z,24.29
2022-08-21T10:29:52.473Z,24.00
2022-08-21T10:32:41.122Z,23.96
2022-08-21T10:35:14.895Z,23.85
2022-08-21T10:37:54.170Z,23.31
2022-08-21T10:40:29.442Z,23.91
2022-08-21T10:43:18.763Z,23.49
2022-08-21T10:45:58.924Z,23.78
2022-08-21T10:48:29.921Z,24.00
2022-08-21T10:51:07.066Z,23.88
2022-08-21T10:53:47.614Z,23.67
2022-08-21T10:56:19.948Z,23.76
2022-08-21T10:59:00.568Z,23.51
2022-08-21T11:01:33.338Z,23.90
2022-08-21T11:04:12.899Z,23.98
2022-08-21T11:06:47.654Z,23.87
2022-08-21T11:09:18.411Z,24.15
2022-08-21T11:11:59.257Z,24.03
2022-08-21T11:14:50.084Z,24.45
2022-08-21T11:17:22.107Z,24.56
2022-08-21T11:19:55.547Z,24.26
2022-08-21T11:22:29.065Z,24.37
2022-08-21T11:25:02.661Z,24.24
2022-08-21T11:27:36.558Z,24.39
2022-08-21T11:30:08.378Z,24.28
2022-08-21T11:32:56.720Z,24.64
2022-08-21T11:35:34.551Z,24.39
2022-08-21T11:38:24.262Z,24.52
2022-08-21T11:41:09.060Z,24.61
2022-08-21T11:43:42.347Z,24.33
2022-08-21T11:46:23.433Z,24.32
2022-08-21T11:49:04.376Z,23.74
2022-08-21T11:51:40.173Z,24.39
2022-08-21T11:54:25.363Z,24.83
2022-08-21T11:56:57.644Z,24.80
2022-08-21T11:59:38.820Z,24.53
2022-08-21T12:02:14.886Z,24.39
2022-08-21T12:04:48.214Z,24.38
2022-08-21T12:07:20.286Z,24.18
2022-08-21T12:09:57.301Z,24.08
2022-08-21T12:12:27.934Z,24.15
2022-08-21T12:15:17.845Z,24.36
2022-08-21T12:17:57.883Z,24.70
2022-08-21T12:20:47.417Z,24.92
2022-08-21T12:23:27.331Z,24.88
2022-08-21T12:26:05.132Z,24.71
2022-08-21T12:28:33.764Z,24.51
2022-08-21T12:31:01.785Z,24.25
2022-08-21T12:33:35.896Z,24.47
2022-08-21T12:36:08.369Z,24.45
2022-08-21T12:38:48.392Z,24.51
2022-08-21T12:41:19.530Z,25.01
2022-08-21T12:43:52.981Z,24.89
2022-08-21T12:46:33.966Z,24.80
2022-08-21T12:49:10.428Z,25.24
2022-08-21T12:51:50.901Z,24.74
2022-08-21T12:54:26.849Z,24.95
2022-08-21T12:57:00.203Z,24.80
2022-08-21T12:59:28.572Z,24.53
2022-08-21T13:01:57.628Z,24.41
2022-08-21T13:04:37.153Z,24.43
2022-08-21T13:07:11.913Z,24.53
2022-08-21T13:09:48.714Z,24.88
2022-08-21T13:12:19.603Z,25.16
2022-08-21T13:14:48.973Z,25.43
2022-08-21T13:17:23.404Z,25.40
2022-08-21T13:19:57.988Z,25.51
2022-08-21T13:22:33.971Z,25.52
2022-08-21T13:25:06.659Z,25.59
2022-08-21T13:27:36.155Z,25.19
2022-08-21T13:30:10.907Z,25.25
2022-08-21T13:32:43.026Z,25.21
2022-08-21T13:35:19.049Z,25.13
2022-08-21T13:37:49.543Z,25.29
2022-08-21T13:40:20.730Z,25.24
2022-08-21T13:42:50.517Z,25.14
2022-08-21T13:45:24.141Z,24.87
2022-08-21T13:47:54.251Z,25.01
2022-08-21T13:50:27.617Z,25.15
2022-08-21T13:53:02.734Z,25.19
2022-08-21T13:55:40.386Z,25.25
2022-08-21T13:58:09.361Z,25.33
2022-08-21T14:00:45.859Z,25.16
2022-08-21T14:03:26.476Z,25.40
2022-08-21T14:05:56.089Z,25.43
2022-08-21T14:08:33.364Z,25.46
2022-08-21T14:11:03.114Z,25.47
2022-08-21T14:13:38.696Z,25.59
2022-08-21T14:16:14.642Z,25.64
2022-08-21T14:18:50.575Z,25.51
2022-08-21T14:21:32.188Z,25.42
2022-08-21T14:24:11.221Z,25.34
2022-08-21T14:26:47.866Z,24.95
2022-08-21T14:29:18.280Z,25.21
2022-08-21T14:31:52.017Z,25.42
2022-08-21T14:34:20.672Z,25.52
2022-08-21T14:36:52.035Z,25.23
2022-08-21T14:39:20.097Z,25.82
2022-08-21T14:41:49.853Z,25.84
2022-08-21T14:44:20.360Z,25.12
2022-08-21T14:46:56.396Z,24.94
2022-08-21T14:49:28.474Z,25.18
2022-08-21T14:51:59.221Z,25.18
2022-08-21T14:54:31.451Z,25.41
2022-08-21T14:57:02.704Z,25.56
2022-08-21T14:59:31.620Z,25.45
2022-08-21T15:01:59.571Z,25.34
2022-08-21T15:04:27.656Z,25.23
2022-08-21T15:06:57.258Z,25.23
2022-08-21T15:09:26.045Z,24.99
2022-08-21T15:11:55.587Z,25.07
2022-08-21T15:14:26.875Z,25.25
2022-08-21T15:16:54.919Z,25.25
2022-08-21T15:19:23.152Z,25.29
2022-08-21T15:21:51.286Z,25.36
2022-08-21T15:24:20.758Z,25.58
2022-08-21T15:26:49.321Z,25.66
2022-08-21T15:29:22.612Z,25.53
2022-08-21T15:31:56.898Z,25.62
2022-08-21T15:34:27.317Z,25.43
2022-08-21T15:36:57.150Z,25.42
2022-08-21T15:39:31.013Z,25.41
2022-08-21T15:42:06.234Z,25.44
2022-08-21T15:44:40.280Z,25.52
2022-08-21T15:47:09.118Z,25.36
2022-08-21T15:49:37.417Z,25.30
2022-08-21T15:52:05.497Z,25.29
2022-08-21T15:54:34.948Z,25.09
2022-08-21T15:57:02.977Z,25.03
2022-08-21T15:59:34.472Z,24.98
2022-08-21T16:02:02.648Z,24.38
2022-08-21T16:04:30.721Z,24.93
2022-08-21T16:07:04.347Z,24.81
2022-08-21T16:09:37.257Z,24.60
2022-08-21T16:12:07.278Z,24.44
2022-08-21T16:14:37.468Z,24.62
2022-08-21T16:17:06.800Z,24.62
2022-08-21T16:19:35.525Z,24.71
2022-08-21T16:22:03.564Z,24.14
2022-08-21T16:24:31.570Z,24.69
2022-08-21T16:27:01.052Z,24.82
2022-08-21T16:29:35.851Z,24.66
2022-08-21T16:32:06.933Z,24.67
2022-08-21T16:34:35.308Z,24.29
2022-08-21T16:37:03.345Z,24.77
2022-08-21T16:39:31.855Z,24.90
2022-08-21T16:42:01.487Z,24.81
2022-08-21T16:44:30.136Z,24.57
2022-08-21T16:46:59.501Z,24.95
2022-08-21T16:49:27.966Z,24.74
2022-08-21T16:51:55.995Z,24.85
2022-08-21T16:54:24.137Z,24.94
2022-08-21T16:56:52.338Z,24.94
2022-08-21T16:59:24.297Z,24.99
2022-08-21T17:01:54.525Z,24.93
2022-08-21T17:04:22.666Z,24.87
2022-08-21T17:06:50.818Z,24.75
2022-08-21T17:09:19.570Z,24.63
2022-08-21T17:11:50.408Z,24.61
2022-08-21T17:14:20.923Z,24.50
2022-08-21T17:16:53.420Z,24.44
2022-08-21T17:19:21.697Z,24.37
2022-08-21T17:21:50.143Z,24.38
2022-08-21T17:24:18.081Z,24.34
2022-08-21T17:26:47.024Z,24.31
2022-08-21T17:29:16.153Z,24.28
2022-08-21T17:31:45.580Z,24.21
2022-08-21T17:34:16.863Z,24.21
2022-08-21T17:36:44.800Z,24.16
2022-08-21T17:39:13.968Z,23.50
2022-08-21T17:41:49.957Z,23.92
2022-08-21T17:44:24.504Z,23.68
2022-08-21T17:46:52.498Z,22.88
2022-08-21T17:49:21.955Z,23.54
2022-08-21T17:51:50.275Z,23.45
2022-08-21T17:54:18.250Z,23.38
2022-08-21T17:56:46.728Z,23.32
2022-08-21T17:59:15.597Z,23.13
2022-08-21T18:01:46.876Z,23.07
2022-08-21T18:04:15.747Z,23.09
2022-08-21T18:06:45.551Z,22.93
2022-08-21T18:09:14.721Z,22.55
2022-08-21T18:11:44.253Z,22.75
2022-08-21T18:14:13.646Z,22.68
2022-08-21T18:16:41.872Z,22.53
2022-08-21T18:19:15.578Z,22.54
2022-08-21T18:21:45.404Z,22.24
2022-08-21T18:24:13.603Z,21.42
2022-08-21T18:26:43.143Z,21.60
2022-08-21T18:29:16.879Z,21.61
2022-08-21T18:31:46.358Z,21.53
2022-08-21T18:34:22.109Z,21.46
2022-08-21T18:36:51.925Z,21.29
2022-08-21T18:39:36.047Z,21.33
2022-08-21T18:42:08.883Z,21.18
2022-08-21T18:44:37.737Z,21.18
2022-08-21T18:47:08.250Z,21.06
2022-08-21T18:49:36.353Z,20.91
2022-08-21T18:52:06.178Z,20.89
2022-08-21T18:54:34.263Z,20.74
2022-08-21T18:57:05.853Z,20.59
2022-08-21T18:59:37.965Z,20.33
2022-08-21T19:02:08.703Z,20.37
2022-08-21T19:04:44.358Z,20.28
2022-08-21T19:07:14.802Z,20.15
2022-08-21T19:09:52.967Z,20.07
2022-08-21T19:12:29.602Z,20.08
2022-08-21T19:14:57.687Z,20.00
2022-08-21T19:17:26.941Z,19.84
2022-08-21T19:19:56.682Z,19.68
2022-08-21T19:22:26.188Z,19.61
2022-08-21T19:24:54.514Z,19.53
2022-08-21T19:27:23.104Z,19.58
2022-08-21T19:29:51.518Z,19.61
2022-08-21T19:32:21.324Z,19.60
2022-08-21T19:34:51.218Z,19.49
2022-08-21T19:37:20.553Z,19.40
2022-08-21T19:39:50.524Z,19.48
2022-08-21T19:42:21.229Z,19.52
2022-08-21T19:44:53.047Z,19.36
2022-08-21T19:47:29.474Z,19.21
2022-08-21T19:50:00.722Z,19.02
2022-08-21T19:52:32.688Z,18.64
2022-08-21T19:55:06.652Z,18.85
2022-08-21T19:57:34.818Z,18.74
2022-08-21T20:00:03.791Z,18.63
2022-08-21T20:02:35.742Z,18.64
2022-08-21T20:05:04.769Z,18.44
2022-08-21T20:07:33.212Z,18.48
2022-08-21T20:10:02.254Z,18.34
2022-08-21T20:12:31.702Z,18.34
2022-08-21T20:15:00.226Z,18.24
2022-08-21T20:17:28.438Z,18.05
2022-08-21T20:19:56.982Z,17.75
2022-08-21T20:22:25.229Z,18.06
2022-08-21T20:24:54.433Z,18.19
2022-08-21T20:27:26.479Z,18.31
2022-08-21T20:29:57.065Z,18.01
2022-08-21T20:32:25.051Z,18.16
2022-08-21T20:34:55.000Z,17.97
2022-08-21T20:37:36.258Z,17.79
2022-08-21T20:42:59.034Z,17.70
2022-08-21T20:45:32.660Z,17.72
2022-08-21T20:48:05.367Z,17.50
2022-08-21T20:50:38.553Z,17.29
2022-08-21T20:53:13.163Z,17.49
2022-08-21T20:55:46.839Z,17.48
2022-08-21T20:58:25.395Z,17.39
2022-08-21T21:01:02.567Z,17.35
2022-08-21T21:03:36.219Z,17.30
2022-08-21T21:06:09.104Z,17.13
2022-08-21T21:11:34.859Z,17.28
2022-08-21T21:14:12.190Z,16.44
2022-08-21T21:16:50.728Z,17.20
2022-08-21T21:19:27.604Z,16.73
2022-08-21T21:22:01.642Z,16.92
2022-08-21T21:24:36.669Z,16.92
2022-08-21T21:27:18.500Z,16.15
2022-08-21T21:29:51.024Z,17.00
2022-08-21T21:32:21.655Z,16.93
2022-08-21T21:34:51.071Z,16.89
2022-08-21T21:37:26.077Z,16.93
2022-08-21T21:40:04.586Z,16.84
2022-08-21T21:42:42.663Z,16.70
2022-08-21T21:45:24.457Z,15.74
2022-08-21T21:51:03.156Z,16.42
2022-08-21T21:53:51.473Z,16.43
2022-08-21T21:56:29.040Z,16.38
2022-08-21T22:02:17.037Z,15.64
2022-08-21T22:04:59.164Z,15.89
2022-08-21T22:07:37.412Z,16.00
2022-08-21T22:10:19.634Z,16.00
2022-08-21T22:13:25.240Z,15.98
2022-08-21T22:15:54.781Z,16.13
2022-08-21T22:18:27.697Z,15.60
2022-08-21T22:21:02.785Z,16.26
2022-08-21T22:23:36.944Z,16.02
2022-08-21T22:26:11.018Z,15.96
2022-08-21T22:28:43.747Z,16.01
2022-08-21T22:34:17.871Z,15.61
2022-08-21T22:36:56.220Z,15.61
2022-08-21T22:39:34.431Z,15.88
2022-08-21T22:42:07.840Z,15.84
2022-08-21T22:44:51.666Z,15.92
2022-08-21T22:47:26.576Z,15.03
2022-08-21T22:49:58.556Z,15.58
2022-08-21T22:52:34.367Z,15.64
2022-08-21T22:55:17.531Z,15.57
2022-08-21T22:57:46.908Z,15.59
2022-08-21T23:00:38.190Z,15.53
2022-08-21T23:03:06.356Z,15.49
2022-08-21T23:05:44.936Z,15.29
2022-08-21T23:08:25.227Z,15.17
2022-08-21T23:10:58.055Z,15.11
2022-08-21T23:13:26.163Z,15.11
2022-08-21T23:16:03.930Z,14.97
2022-08-21T23:18:44.722Z,15.08
2022-08-21T23:21:19.873Z,14.92
2022-08-21T23:24:01.567Z,15.27
2022-08-21T23:26:39.035Z,14.97
2022-08-21T23:29:24.916Z,15.36
2022-08-21T23:32:35.591Z,15.04
2022-08-21T23:35:16.181Z,15.09
2022-08-21T23:37:53.182Z,15.09
2022-08-21T23:40:39.154Z,15.02
2022-08-21T23:43:30.934Z,14.86
2022-08-21T23:46:04.713Z,14.98
2022-08-21T23:48:48.551Z,14.88
2022-08-21T23:51:28.862Z,14.85
2022-08-21T23:54:12.687Z,14.80
2022-08-21T23:57:08.267Z,14.59
2022-08-21T23:59:49.779Z,14.58
